Zdamen — CRA6504 — position and weather

sailwx.info

Track history (hours):
 
Tides and Currents Weather Stations Pressure Air Temp Water Temp Dewpoint Dewpoint Depression Visibility Wind Speed Wind Dir Waves Ship Positions

Zdamen

Last reported at 2018-Feb-25 15:03 UTC. Time now 2018-Feb-26 01:51 UTC.
Position N 38°42' W 009°10'.

Length 12 m.

Type: Sailing vessel. MMSI: 263951470.

Date/timePositionNaut miles runAvg speedWind from/ knotsBaromVisibWave heightAir tempDewpointWater temp
2018-Feb-25 15:03N 38°42' W 009°10'1 4.9
2018-Feb-25 14:54N 38°42' W 009°11'2 4.9
2018-Feb-25 14:29N 38°41' W 009°13'2 3.4
2018-Feb-25 13:58N 38°42' W 009°16'1 2.1
2018-Feb-25 13:30N 38°42' W 009°14'0 0.5
2018-Feb-25 12:57N 38°42' W 009°15'1 2.0
2018-Feb-25 12:30N 38°42' W 009°16'0 0.5
2018-Feb-25 11:59N 38°42' W 009°15'0 0.3
2018-Feb-25 11:28N 38°42' W 009°15'5 0.2
2018-Feb-24 14:36N 38°42' W 009°09'2 5.3
2018-Feb-24 14:18N 38°42' W 009°11'2 5.8
2018-Feb-24 13:55N 38°41' W 009°14'1 1.7
2018-Feb-24 13:11N 38°42' W 009°16'0 0.5
2018-Feb-24 12:58N 38°42' W 009°16'1 1.9
2018-Feb-24 12:28N 38°42' W 009°15'0 0.6
2018-Feb-24 12:00N 38°42' W 009°14'1 1.5
2018-Feb-24 11:26N 38°41' W 009°15'2 5.3
2018-Feb-24 11:00N 38°41' W 009°13'  
Track history (hours):
 
Tides and Currents Weather Stations Pressure Air Temp Water Temp Dewpoint Dewpoint Depression Visibility Wind Speed Wind Dir Waves Ship Positions

Zdamen

Last reported at 2018-Feb-25 15:03 UTC. Time now 2018-Feb-26 01:51 UTC.
Position N 38°42' W 009°10'.

Length 12 m.

Type: Sailing vessel. MMSI: 263951470.

Date/timePositionNaut miles runAvg speedWind from/ knotsBaromVisibWave heightAir tempDewpointWater temp
2018-Feb-25 15:03N 38°42' W 009°10'1 4.9
2018-Feb-25 14:54N 38°42' W 009°11'2 4.9
2018-Feb-25 14:29N 38°41' W 009°13'2 3.4
2018-Feb-25 13:58N 38°42' W 009°16'1 2.1
2018-Feb-25 13:30N 38°42' W 009°14'0 0.5
2018-Feb-25 12:57N 38°42' W 009°15'1 2.0
2018-Feb-25 12:30N 38°42' W 009°16'0 0.5
2018-Feb-25 11:59N 38°42' W 009°15'0 0.3
2018-Feb-25 11:28N 38°42' W 009°15'5 0.2
2018-Feb-24 14:36N 38°42' W 009°09'2 5.3
2018-Feb-24 14:18N 38°42' W 009°11'2 5.8
2018-Feb-24 13:55N 38°41' W 009°14'1 1.7
2018-Feb-24 13:11N 38°42' W 009°16'0 0.5
2018-Feb-24 12:58N 38°42' W 009°16'1 1.9
2018-Feb-24 12:28N 38°42' W 009°15'0 0.6
2018-Feb-24 12:00N 38°42' W 009°14'1 1.5
2018-Feb-24 11:26N 38°41' W 009°15'2 5.3
2018-Feb-24 11:00N 38°41' W 009°13'  

Dump ship's entire track history